Time;durP1;ratioP1;P1;durP2;ratioP2;P2;SDS_P1;SDS_P2;PMS_P1;PMS_P2;Temp;Humidity;BMP_temperature;BMP_pressure;BME280_temperature;BME280_humidity;BME280_pressure;Samples;Min_cycle;Max_cycle;Signal;HPM_P1;HPM_P2
2022/03/21 00:01:20;;;;;;;19.23;11.73;;;6.80;99.90;;;;;;4834719;29;20498;-80
2022/03/21 00:03:46;;;;;;;23.42;12.20;;;6.80;99.90;;;;;;4812731;29;20085;-78
2022/03/21 00:06:12;;;;;;;20.42;11.73;;;6.90;99.90;;;;;;4809345;29;20086;-79
2022/03/21 00:08:38;;;;;;;19.25;10.98;;;6.90;99.90;;;;;;4834565;29;20133;-79
2022/03/21 00:11:03;;;;;;;21.50;12.02;;;6.90;99.90;;;;;;4812455;29;20085;-79
2022/03/21 00:13:29;;;;;;;20.27;12.95;;;6.90;99.90;;;;;;4809384;29;20063;-79
2022/03/21 00:15:56;;;;;;;21.73;12.13;;;6.90;99.90;;;;;;4828214;29;20136;-79
2022/03/21 00:18:24;;;;;;;19.50;11.23;;;7.00;99.90;;;;;;4809170;29;20544;-80
2022/03/21 00:20:53;;;;;;;22.27;12.45;;;6.90;99.90;;;;;;4818556;29;20719;-79
2022/03/21 00:23:19;;;;;;;20.15;11.73;;;6.90;99.90;;;;;;4834625;29;20058;-79
2022/03/21 00:25:45;;;;;;;23.58;12.73;;;6.90;99.90;;;;;;4804652;29;20051;-79
2022/03/21 00:28:11;;;;;;;23.27;13.20;;;6.90;99.90;;;;;;4803729;29;20053;-79
2022/03/21 00:30:39;;;;;;;19.58;11.77;;;6.80;99.90;;;;;;4806488;29;20062;-79
2022/03/21 00:33:04;;;;;;;23.25;11.70;;;6.90;99.90;;;;;;4822331;29;20448;-79
2022/03/21 00:35:30;;;;;;;20.00;11.50;;;6.90;99.90;;;;;;4810680;29;20088;-80
2022/03/21 00:37:57;;;;;;;21.20;12.13;;;6.80;99.90;;;;;;4808180;29;20047;-79
2022/03/21 00:40:24;;;;;;;20.17;11.50;;;6.80;99.90;;;;;;4813201;29;20054;-79
2022/03/21 00:42:51;;;;;;;21.05;12.63;;;6.80;99.90;;;;;;4806624;29;20518;-79
2022/03/21 00:45:19;;;;;;;23.80;12.98;;;6.80;99.90;;;;;;4822825;29;20054;-79
2022/03/21 00:47:47;;;;;;;20.55;12.15;;;6.90;99.90;;;;;;4837639;29;20062;-79
2022/03/21 00:50:15;;;;;;;19.60;10.63;;;6.80;99.90;;;;;;4822457;29;20065;-79
2022/03/21 00:52:46;;;;;;;21.90;13.45;;;6.90;99.90;;;;;;4823442;29;20050;-79
2022/03/21 00:55:14;;;;;;;21.83;11.38;;;6.90;99.90;;;;;;4822052;29;20400;-79
2022/03/21 00:57:42;;;;;;;22.52;12.00;;;6.90;99.90;;;;;;4822358;29;20050;-79
2022/03/21 01:00:20;;;;;;;18.80;11.63;;;6.90;99.90;;;;;;4822281;29;20062;-79
2022/03/21 01:02:46;;;;;;;21.80;12.10;;;6.90;99.90;;;;;;4822293;29;20476;-79
2022/03/21 01:05:12;;;;;;;22.60;13.10;;;6.80;99.90;;;;;;4837272;29;20563;-79
2022/03/21 01:07:40;;;;;;;24.20;12.98;;;6.80;99.90;;;;;;4822058;29;20141;-79
2022/03/21 01:10:07;;;;;;;22.55;12.80;;;6.80;99.90;;;;;;4806782;29;20126;-79
2022/03/21 01:12:33;;;;;;;19.20;11.93;;;6.70;99.90;;;;;;4823191;29;20093;-79
2022/03/21 01:15:00;;;;;;;22.65;12.07;;;6.70;99.90;;;;;;4822449;29;20090;-79
2022/03/21 01:17:27;;;;;;;22.38;13.27;;;7.10;99.90;;;;;;4822211;29;20106;-79
2022/03/21 01:19:53;;;;;;;22.33;12.13;;;6.70;99.90;;;;;;4823061;29;20661;-80
2022/03/21 01:22:19;;;;;;;20.70;12.18;;;6.70;99.90;;;;;;4821675;29;20057;-80
2022/03/21 01:24:45;;;;;;;21.17;12.98;;;6.90;99.90;;;;;;4822999;29;20403;-80
2022/03/21 01:27:11;;;;;;;21.50;12.60;;;6.90;99.90;;;;;;4821934;29;20097;-80
2022/03/21 01:29:37;;;;;;;20.40;12.60;;;6.60;99.90;;;;;;4822878;29;20086;-79
2022/03/21 01:32:03;;;;;;;20.73;12.48;;;6.60;99.90;;;;;;4822937;29;20050;-79
2022/03/21 01:34:29;;;;;;;21.55;11.82;;;6.60;99.90;;;;;;4822921;29;20096;-79
2022/03/21 01:36:55;;;;;;;21.42;12.23;;;6.60;99.90;;;;;;4822860;29;20089;-80
2022/03/21 01:39:21;;;;;;;21.70;12.82;;;6.60;99.90;;;;;;4806603;29;20058;-80
2022/03/21 01:41:47;;;;;;;23.67;12.60;;;6.60;99.90;;;;;;4821487;29;20058;-79
2022/03/21 01:44:13;;;;;;;24.92;12.90;;;6.50;99.90;;;;;;4821725;29;20133;-79
2022/03/21 01:46:41;;;;;;;21.70;12.40;;;6.50;99.90;;;;;;4820889;29;20097;-80
2022/03/21 01:49:08;;;;;;;21.50;12.05;;;6.50;99.90;;;;;;4821619;29;20066;-79
2022/03/21 01:51:36;;;;;;;20.90;11.85;;;6.50;99.90;;;;;;4806650;29;20047;-79
2022/03/21 01:56:47;;;;;;;20.55;11.88;;;6.50;99.90;;;;;;4821426;29;20066;-80
2022/03/21 01:59:14;;;;;;;20.20;12.02;;;6.70;99.90;;;;;;4822851;29;20366;-80
2022/03/21 02:01:41;;;;;;;21.10;12.77;;;6.60;99.90;;;;;;4821364;29;20059;-80
2022/03/21 02:04:07;;;;;;;18.20;12.07;;;6.60;99.90;;;;;;4822434;29;20054;-79
2022/03/21 02:06:33;;;;;;;20.05;11.57;;;6.50;99.90;;;;;;4806230;29;20442;-80
2022/03/21 02:09:01;;;;;;;19.35;11.57;;;6.50;99.90;;;;;;4821486;29;20567;-79
2022/03/21 02:11:28;;;;;;;20.98;12.07;;;6.50;99.90;;;;;;4820996;29;20576;-79
2022/03/21 02:13:57;;;;;;;21.45;11.85;;;6.50;99.90;;;;;;4791316;29;20058;-79
2022/03/21 02:16:24;;;;;;;21.00;11.43;;;6.50;99.90;;;;;;4822403;29;20191;-79
2022/03/21 02:18:51;;;;;;;17.13;10.43;;;6.50;99.90;;;;;;4820772;29;20078;-80
2022/03/21 02:21:41;;;;;;;21.58;10.63;;;6.50;99.90;;;;;;4806026;29;20061;-79
2022/03/21 02:24:26;;;;;;;21.65;11.15;;;6.50;99.90;;;;;;4821274;29;20062;-80
2022/03/21 02:26:52;;;;;;;19.60;11.02;;;6.60;99.90;;;;;;4821347;29;20096;-80
2022/03/21 02:29:20;;;;;;;17.40;10.55;;;6.90;99.90;;;;;;4821130;29;20059;-80
2022/03/21 02:31:47;;;;;;;18.05;10.10;;;6.60;99.90;;;;;;4806200;29;20058;-80
2022/03/21 02:34:13;;;;;;;18.65;10.25;;;6.60;99.90;;;;;;4821022;29;20046;-80
2022/03/21 02:36:39;;;;;;;18.20;10.80;;;6.60;99.90;;;;;;4822216;29;20386;-80
2022/03/21 02:39:05;;;;;;;19.48;11.55;;;6.60;99.90;;;;;;4822201;29;20066;-80
2022/03/21 02:41:31;;;;;;;17.98;10.77;;;6.60;99.90;;;;;;4823057;29;20050;-80
2022/03/21 02:43:59;;;;;;;21.45;10.95;;;6.50;99.90;;;;;;4824414;29;20085;-80
2022/03/21 02:46:25;;;;;;;20.35;10.93;;;6.50;99.90;;;;;;4823655;29;20073;-80
2022/03/21 02:48:53;;;;;;;20.13;11.02;;;6.50;99.90;;;;;;4823933;29;20073;-80
2022/03/21 02:51:22;;;;;;;19.13;10.85;;;6.50;99.90;;;;;;4825368;29;20133;-80
2022/03/21 02:53:51;;;;;;;17.25;10.70;;;6.50;99.90;;;;;;4809119;29;20050;-80
2022/03/21 02:56:20;;;;;;;17.58;11.20;;;6.50;99.90;;;;;;4823923;29;20051;-80
2022/03/21 02:58:47;;;;;;;18.65;10.40;;;6.50;99.90;;;;;;4824124;29;20054;-80
2022/03/21 03:01:17;;;;;;;18.60;11.05;;;6.40;99.90;;;;;;4823942;29;20445;-80
2022/03/21 03:03:44;;;;;;;18.65;10.82;;;6.40;99.90;;;;;;4808928;29;20492;-80
2022/03/21 03:06:11;;;;;;;16.65;10.50;;;6.40;99.90;;;;;;4824048;29;20094;-80
2022/03/21 03:08:39;;;;;;;17.30;10.43;;;6.50;99.90;;;;;;4823892;29;20074;-79
2022/03/21 03:11:04;;;;;;;20.30;11.40;;;6.30;99.90;;;;;;4808962;29;20149;-80
2022/03/21 03:13:30;;;;;;;18.40;10.77;;;6.30;99.90;;;;;;4824833;29;20137;-80
2022/03/21 03:15:56;;;;;;;18.70;10.77;;;6.30;99.90;;;;;;4825037;29;20127;-80
2022/03/21 03:18:22;;;;;;;18.80;10.30;;;6.20;99.90;;;;;;4824847;29;20062;-80
2022/03/21 03:20:50;;;;;;;20.25;9.70;;;6.20;99.90;;;;;;4823709;29;20089;-80
2022/03/21 03:23:18;;;;;;;16.23;9.32;;;6.10;99.90;;;;;;4824759;29;20105;-79
2022/03/21 03:25:45;;;;;;;17.30;10.32;;;6.00;99.90;;;;;;4823648;29;20050;-80
2022/03/21 03:28:11;;;;;;;17.27;10.23;;;5.90;99.90;;;;;;4823410;29;20133;-79
2022/03/21 03:30:38;;;;;;;14.32;9.13;;;5.80;99.90;;;;;;4823551;29;20440;-80
2022/03/21 03:33:04;;;;;;;14.55;8.70;;;5.70;99.90;;;;;;4808602;29;20130;-80
2022/03/21 03:35:30;;;;;;;16.15;8.43;;;5.60;99.90;;;;;;4823430;29;20484;-79
2022/03/21 03:37:55;;;;;;;15.88;9.27;;;5.50;99.90;;;;;;4823250;29;20701;-80
2022/03/21 03:40:21;;;;;;;17.52;9.35;;;5.50;99.90;;;;;;4824411;29;20054;-80
2022/03/21 03:42:47;;;;;;;17.65;9.52;;;5.50;99.90;;;;;;4824376;29;20072;-80
2022/03/21 03:45:13;;;;;;;17.27;8.82;;;5.30;99.90;;;;;;4822812;29;20065;-80
2022/03/21 03:47:40;;;;;;;15.77;10.07;;;5.30;99.90;;;;;;4824085;29;20527;-80
2022/03/21 03:50:07;;;;;;;18.73;11.07;;;5.30;99.90;;;;;;4824368;29;20087;-80
2022/03/21 03:52:32;;;;;;;13.00;8.55;;;5.30;99.90;;;;;;4822433;29;20058;-80
2022/03/21 03:54:58;;;;;;;12.82;8.98;;;5.30;99.90;;;;;;4823300;29;20057;-80
2022/03/21 03:57:24;;;;;;;14.38;7.57;;;5.60;99.90;;;;;;4823246;29;20062;-80
2022/03/21 03:59:49;;;;;;;14.27;8.15;;;5.50;99.90;;;;;;4824188;29;20051;-80
2022/03/21 04:02:15;;;;;;;14.30;7.40;;;5.20;99.90;;;;;;4822916;29;20110;-80
2022/03/21 04:04:42;;;;;;;15.70;8.90;;;5.80;99.90;;;;;;4824093;29;20145;-80
2022/03/21 04:07:08;;;;;;;15.77;9.15;;;5.20;99.90;;;;;;4823103;29;20065;-79
2022/03/21 04:09:34;;;;;;;19.15;10.07;;;5.20;99.90;;;;;;4824068;29;20499;-79
2022/03/21 04:12:00;;;;;;;17.95;10.30;;;5.10;99.90;;;;;;4824002;29;20127;-79
2022/03/21 04:14:25;;;;;;;16.27;9.98;;;5.10;99.90;;;;;;4822811;29;20068;-80
2022/03/21 04:16:51;;;;;;;14.15;8.55;;;5.00;99.90;;;;;;4823902;29;20062;-79
2022/03/21 04:19:17;;;;;;;17.77;9.43;;;5.00;99.90;;;;;;4823758;29;20066;-79
2022/03/21 04:21:43;;;;;;;23.25;14.13;;;4.90;99.90;;;;;;4823826;29;20054;-79
2022/03/21 04:24:09;;;;;;;18.13;10.45;;;4.90;99.90;;;;;;4822615;29;20050;-80
2022/03/21 04:26:34;;;;;;;18.92;9.50;;;4.80;99.90;;;;;;4823550;29;20050;-80
2022/03/21 04:29:04;;;;;;;18.65;9.43;;;5.10;99.90;;;;;;4823768;29;20050;-79
2022/03/21 04:31:31;;;;;;;17.65;10.15;;;4.70;99.90;;;;;;4822663;29;20058;-79
2022/03/21 04:33:57;;;;;;;15.38;9.50;;;4.90;99.90;;;;;;4822563;29;20510;-80
2022/03/21 04:36:23;;;;;;;20.88;11.13;;;4.70;99.90;;;;;;4822705;29;20097;-80
2022/03/21 04:38:49;;;;;;;20.42;10.20;;;4.90;99.90;;;;;;4823621;29;20098;-79
2022/03/21 04:41:15;;;;;;;18.63;10.07;;;4.50;99.90;;;;;;4822419;29;20564;-80
2022/03/21 04:43:41;;;;;;;15.25;9.70;;;4.40;99.90;;;;;;4822526;29;20446;-80
2022/03/21 04:46:07;;;;;;;15.48;8.50;;;4.90;99.90;;;;;;4821575;29;20046;-79
2022/03/21 04:48:33;;;;;;;14.20;8.18;;;4.30;99.90;;;;;;4823290;29;20068;-80
2022/03/21 04:50:59;;;;;;;11.48;7.43;;;4.20;99.90;;;;;;4822087;29;20099;-80
2022/03/21 04:53:24;;;;;;;11.43;7.13;;;4.40;99.90;;;;;;4822492;29;20441;-80
2022/03/21 04:55:51;;;;;;;15.00;8.30;;;4.00;99.90;;;;;;4823323;29;20046;-80
2022/03/21 04:58:17;;;;;;;16.35;9.32;;;4.30;99.90;;;;;;4822389;29;20058;-80
2022/03/21 05:00:44;;;;;;;14.13;7.68;;;3.90;99.90;;;;;;4807020;29;20131;-79
2022/03/21 05:03:10;;;;;;;17.88;10.18;;;4.20;99.90;;;;;;4821726;29;20386;-80
2022/03/21 05:05:36;;;;;;;16.90;9.48;;;3.70;99.90;;;;;;4823291;29;20077;-80
2022/03/21 05:08:03;;;;;;;14.35;8.30;;;3.90;99.90;;;;;;4821809;29;20500;-80
2022/03/21 05:10:30;;;;;;;15.52;9.27;;;3.60;99.90;;;;;;4821977;29;20062;-80
2022/03/21 05:12:57;;;;;;;19.98;10.85;;;3.60;99.90;;;;;;4822278;29;20058;-80
2022/03/21 05:15:23;;;;;;;19.75;10.18;;;3.70;99.90;;;;;;4821849;29;20049;-80
2022/03/21 05:17:51;;;;;;;15.70;9.38;;;3.70;99.90;;;;;;4821679;29;20050;-79
2022/03/21 05:20:17;;;;;;;16.60;7.90;;;3.70;99.90;;;;;;4823329;29;20119;-80
2022/03/21 05:22:44;;;;;;;18.70;10.13;;;3.80;99.90;;;;;;4822620;29;20083;-79
2022/03/21 05:30:57;;;;;;;17.63;10.02;;;3.60;99.90;;;;;;4821812;29;20054;-80
2022/03/21 05:36:08;;;;;;;16.98;8.85;;;3.80;99.90;;;;;;4821571;29;20094;-80
2022/03/21 05:38:34;;;;;;;15.65;9.85;;;3.50;99.90;;;;;;4821752;29;20381;-79
2022/03/21 05:41:01;;;;;;;20.02;10.32;;;3.40;99.90;;;;;;4822841;29;20042;-80
2022/03/21 05:43:32;;;;;;;18.63;10.07;;;3.50;99.90;;;;;;4821464;29;20127;-80
2022/03/21 05:46:01;;;;;;;18.15;10.88;;;3.70;99.90;;;;;;4820953;29;20054;-80
2022/03/21 05:51:21;;;;;;;19.17;10.95;;;3.50;99.90;;;;;;4821733;29;20161;-80
2022/03/21 05:53:46;;;;;;;21.25;11.05;;;3.50;99.90;;;;;;4822573;29;20082;-80
2022/03/21 05:56:13;;;;;;;22.73;11.98;;;3.60;99.90;;;;;;4821650;29;20054;-80
2022/03/21 05:58:39;;;;;;;21.38;12.02;;;3.80;99.90;;;;;;4822517;29;20133;-79
2022/03/21 06:01:05;;;;;;;19.52;11.70;;;4.10;99.90;;;;;;4822627;29;20133;-80
2022/03/21 06:03:31;;;;;;;22.00;11.95;;;3.70;99.90;;;;;;4806431;29;20050;-80
2022/03/21 06:05:59;;;;;;;20.08;11.10;;;3.70;99.90;;;;;;4821333;29;20050;-80
2022/03/21 06:08:25;;;;;;;22.30;11.73;;;3.80;99.90;;;;;;4822623;29;20062;-80
2022/03/21 06:11:03;;;;;;;22.25;11.85;;;4.50;99.90;;;;;;4822391;29;20125;-80
2022/03/21 06:13:33;;;;;;;20.20;11.23;;;3.90;99.90;;;;;;4806310;29;20161;-80
2022/03/21 06:16:04;;;;;;;16.08;8.95;;;3.90;99.90;;;;;;4822792;29;20130;-80
2022/03/21 06:18:31;;;;;;;13.88;8.88;;;3.90;99.90;;;;;;4824612;29;20472;-80
2022/03/21 06:20:57;;;;;;;13.80;8.32;;;3.80;99.90;;;;;;4809648;29;20054;-80
2022/03/21 06:23:23;;;;;;;16.10;8.88;;;3.90;99.90;;;;;;4824388;29;20062;-79
2022/03/21 06:25:49;;;;;;;16.48;8.30;;;3.80;99.90;;;;;;4824562;29;20138;-80
2022/03/21 06:28:14;;;;;;;16.98;9.27;;;4.20;99.90;;;;;;4824517;29;20133;-80
2022/03/21 06:30:40;;;;;;;12.90;8.07;;;4.00;99.90;;;;;;4824540;29;20061;-80
2022/03/21 06:33:06;;;;;;;12.13;8.30;;;3.50;99.90;;;;;;4824331;29;20055;-80
2022/03/21 06:35:31;;;;;;;18.33;9.93;;;3.90;99.90;;;;;;4824208;29;20583;-80
2022/03/21 06:37:57;;;;;;;20.35;10.68;;;3.60;99.90;;;;;;4825475;29;20050;-80
2022/03/21 06:40:25;;;;;;;18.33;11.65;;;3.60;99.90;;;;;;4824154;29;20133;-80
2022/03/21 06:42:50;;;;;;;21.58;11.65;;;3.70;99.90;;;;;;4825166;29;20066;-80
2022/03/21 06:45:16;;;;;;;21.60;11.90;;;4.30;99.90;;;;;;4823500;29;20205;-80
2022/03/21 06:47:42;;;;;;;22.42;11.55;;;4.00;99.90;;;;;;4824211;29;20046;-80
2022/03/21 06:50:10;;;;;;;22.00;11.95;;;4.20;99.90;;;;;;4825384;29;20065;-80
2022/03/21 06:52:39;;;;;;;19.65;11.55;;;4.30;99.90;;;;;;4824104;29;20153;-80
2022/03/21 06:55:09;;;;;;;22.13;12.52;;;4.40;99.90;;;;;;4825107;29;20058;-80
2022/03/21 06:57:35;;;;;;;27.55;12.45;;;4.50;99.90;;;;;;4824092;29;20061;-80
2022/03/21 07:00:02;;;;;;;22.80;13.55;;;4.60;99.90;;;;;;4823993;29;20058;-80
2022/03/21 07:02:29;;;;;;;26.27;13.15;;;4.80;99.90;;;;;;4825113;29;20130;-80
2022/03/21 07:04:55;;;;;;;26.50;13.55;;;4.90;99.90;;;;;;4809232;29;20552;-80
2022/03/21 07:07:21;;;;;;;22.83;12.60;;;5.60;99.90;;;;;;4824909;29;20145;-80
2022/03/21 07:09:47;;;;;;;23.98;12.77;;;5.30;99.90;;;;;;4823812;29;20054;-80
2022/03/21 07:12:12;;;;;;;22.17;12.40;;;5.30;99.90;;;;;;4823461;29;20054;-79
2022/03/21 07:14:38;;;;;;;20.48;11.82;;;5.40;99.90;;;;;;4825030;29;20058;-79
2022/03/21 07:17:04;;;;;;;23.50;12.50;;;5.90;99.90;;;;;;4824905;29;20503;-80
2022/03/21 07:19:30;;;;;;;20.13;11.13;;;5.70;99.90;;;;;;4823241;29;20077;-82
2022/03/21 07:21:55;;;;;;;21.15;11.35;;;5.70;99.90;;;;;;4823420;29;20058;-82
2022/03/21 07:24:21;;;;;;;18.45;11.68;;;6.40;99.90;;;;;;4823897;29;20061;-82
2022/03/21 07:26:47;;;;;;;22.00;12.98;;;5.90;99.90;;;;;;4823390;29;20081;-82
2022/03/21 07:29:12;;;;;;;23.38;12.40;;;6.00;99.90;;;;;;4823688;29;20054;-82
2022/03/21 07:31:38;;;;;;;22.83;13.00;;;6.10;99.90;;;;;;4823565;29;20500;-82
2022/03/21 07:34:04;;;;;;;22.35;13.05;;;6.20;99.90;;;;;;4823113;29;20060;-82
2022/03/21 07:36:30;;;;;;;27.08;13.65;;;6.30;99.90;;;;;;4823433;29;20046;-81
2022/03/21 07:38:57;;;;;;;23.60;12.25;;;6.40;99.90;;;;;;4823393;29;20065;-81
2022/03/21 07:41:26;;;;;;;28.10;13.30;;;6.50;99.90;;;;;;4807791;29;20050;-82
2022/03/21 07:43:52;;;;;;;19.95;11.75;;;6.60;99.90;;;;;;4823253;29;20129;-81
2022/03/21 07:49:02;;;;;;;23.23;12.98;;;6.70;99.90;;;;;;4823443;29;20058;-81
2022/03/21 07:51:27;;;;;;;19.25;12.45;;;6.80;99.90;;;;;;4807967;29;20050;-81
2022/03/21 07:53:53;;;;;;;23.33;11.90;;;6.90;99.90;;;;;;4822961;29;20054;-81
2022/03/21 07:56:19;;;;;;;21.35;12.55;;;7.00;99.90;;;;;;4823293;29;20086;-81
2022/03/21 07:58:45;;;;;;;24.92;12.68;;;7.10;99.90;;;;;;4808168;29;20061;-81
2022/03/21 08:01:11;;;;;;;23.35;11.75;;;7.20;99.90;;;;;;4823124;29;20401;-81
2022/03/21 08:03:37;;;;;;;20.13;12.60;;;7.30;99.90;;;;;;4823024;29;20061;-81
2022/03/21 08:06:03;;;;;;;20.10;11.52;;;7.40;99.90;;;;;;4822922;29;20054;-81
2022/03/21 08:08:29;;;;;;;24.98;12.50;;;7.50;99.90;;;;;;4823122;29;20051;-81
2022/03/21 08:10:56;;;;;;;23.75;12.82;;;7.70;99.90;;;;;;4822742;29;20050;-81
2022/03/21 08:13:23;;;;;;;20.42;12.13;;;7.80;99.90;;;;;;4824036;29;20066;-81
2022/03/21 08:15:48;;;;;;;24.85;13.68;;;7.90;99.90;;;;;;4807761;29;20047;-80
2022/03/21 08:18:15;;;;;;;27.15;12.93;;;8.00;99.90;;;;;;4807033;29;20119;-80
2022/03/21 08:20:43;;;;;;;21.65;13.43;;;8.10;99.90;;;;;;4797824;29;20058;-80
2022/03/21 08:23:13;;;;;;;21.73;12.05;;;8.20;99.90;;;;;;4805045;29;20050;-80
2022/03/21 08:25:43;;;;;;;20.88;12.50;;;8.40;99.90;;;;;;4816684;29;20518;-84
2022/03/21 08:28:09;;;;;;;23.90;13.02;;;8.50;99.90;;;;;;4835379;29;20085;-84
2022/03/21 08:30:37;;;;;;;24.77;13.60;;;8.60;99.90;;;;;;4821491;29;20267;-83
2022/03/21 08:33:05;;;;;;;19.90;13.13;;;8.80;99.90;;;;;;4791512;29;20055;-84
2022/03/21 08:35:32;;;;;;;23.30;13.40;;;8.90;99.90;;;;;;4824380;29;20062;-85
2022/03/21 08:37:59;;;;;;;24.45;14.20;;;9.00;99.90;;;;;;4820802;29;20404;-80
2022/03/21 08:40:25;;;;;;;22.17;12.20;;;9.10;99.90;;;;;;4821020;29;20058;-80
2022/03/21 08:42:51;;;;;;;25.52;12.40;;;9.20;99.90;;;;;;4820906;29;20051;-81
2022/03/21 08:45:18;;;;;;;20.52;11.55;;;9.30;99.90;;;;;;4820892;29;20493;-81
2022/03/21 08:47:44;;;;;;;22.83;12.57;;;9.40;99.90;;;;;;4820730;29;20106;-82
2022/03/21 08:50:11;;;;;;;21.55;11.98;;;9.50;99.90;;;;;;4820994;29;20110;-83
2022/03/21 08:52:37;;;;;;;22.15;12.48;;;9.50;99.90;;;;;;4836137;29;20149;-81
2022/03/21 08:55:06;;;;;;;21.92;12.20;;;9.60;99.90;;;;;;4836481;29;20137;-81
2022/03/21 08:57:32;;;;;;;22.90;12.40;;;9.70;99.90;;;;;;4834598;29;20066;-81
2022/03/21 08:59:58;;;;;;;24.85;12.35;;;9.80;99.90;;;;;;4820613;29;20137;-81
2022/03/21 09:02:24;;;;;;;22.70;12.90;;;9.90;99.90;;;;;;4820204;29;20133;-81
2022/03/21 09:04:50;;;;;;;20.67;12.95;;;10.00;99.90;;;;;;4819370;29;20047;-81
2022/03/21 09:07:16;;;;;;;20.27;13.00;;;10.10;99.90;;;;;;4820546;29;20133;-80
2022/03/21 09:09:42;;;;;;;19.27;12.23;;;10.20;99.90;;;;;;4805710;29;20050;-79
2022/03/21 09:12:09;;;;;;;21.75;12.38;;;10.30;99.90;;;;;;4820827;29;20042;-80
2022/03/21 09:14:35;;;;;;;23.67;11.65;;;10.40;99.90;;;;;;4821667;29;20061;-80
2022/03/21 09:17:02;;;;;;;22.85;12.60;;;10.50;99.90;;;;;;4820350;29;20563;-82
2022/03/21 09:19:29;;;;;;;19.48;12.23;;;10.70;99.90;;;;;;4779818;29;1116145;-82
2022/03/21 09:21:57;;;;;;;20.73;11.65;;;10.80;99.90;;;;;;4802923;29;20094;-80
2022/03/21 09:24:23;;;;;;;20.60;12.35;;;10.90;99.90;;;;;;4803257;29;20063;-81
2022/03/21 09:26:49;;;;;;;22.42;13.27;;;11.00;99.90;;;;;;4804313;29;20051;-81
2022/03/21 09:29:15;;;;;;;20.63;12.20;;;11.20;99.90;;;;;;4804408;29;20055;-81
2022/03/21 09:31:41;;;;;;;19.13;10.60;;;11.30;99.90;;;;;;4804812;29;20097;-80
2022/03/21 09:34:08;;;;;;;21.23;11.65;;;11.40;99.90;;;;;;4821011;29;20086;-81
2022/03/21 09:36:35;;;;;;;19.83;11.68;;;11.40;99.90;;;;;;4821303;29;20404;-80
2022/03/21 09:39:00;;;;;;;22.58;11.65;;;11.50;99.90;;;;;;4821274;29;20042;-81
2022/03/21 09:41:29;;;;;;;20.58;11.60;;;11.60;99.90;;;;;;4820888;29;20481;-81
2022/03/21 09:44:12;;;;;;;23.05;12.63;;;11.70;99.90;;;;;;4821434;29;20061;-80
2022/03/21 09:46:40;;;;;;;21.15;12.45;;;11.80;99.90;;;;;;4820682;29;20058;-81
2022/03/21 09:49:07;;;;;;;19.25;12.55;;;11.90;99.90;;;;;;4820848;29;20471;-81
2022/03/21 09:51:33;;;;;;;21.85;12.85;;;12.10;99.90;;;;;;4820295;29;20081;-80
2022/03/21 09:54:00;;;;;;;21.50;12.48;;;12.20;99.90;;;;;;4822364;29;20062;-80
2022/03/21 09:56:28;;;;;;;20.48;12.77;;;12.30;99.90;;;;;;4821917;29;20077;-80
2022/03/21 09:58:59;;;;;;;22.88;12.43;;;12.40;99.90;;;;;;4822516;29;20050;-80
2022/03/21 10:01:26;;;;;;;25.75;14.43;;;12.50;99.90;;;;;;4821139;29;20058;-81
2022/03/21 10:03:52;;;;;;;22.83;14.02;;;12.60;99.90;;;;;;4821949;29;20137;-81
2022/03/21 10:06:40;;;;;;;23.10;13.27;;;12.70;99.90;;;;;;4821171;29;20570;-83
2022/03/21 10:09:11;;;;;;;24.42;13.63;;;12.60;99.90;;;;;;4806010;29;20061;-81
2022/03/21 10:11:39;;;;;;;22.63;12.82;;;12.60;99.90;;;;;;4821736;29;20056;-81
2022/03/21 10:14:26;;;;;;;22.05;13.73;;;12.70;99.90;;;;;;4820811;29;20058;-80
2022/03/21 10:16:59;;;;;;;21.63;13.25;;;12.90;99.90;;;;;;4833634;29;20058;-81
2022/03/21 10:19:27;;;;;;;21.33;13.02;;;13.00;99.90;;;;;;4823463;29;20489;-82
2022/03/21 10:22:23;;;;;;;22.42;13.65;;;13.20;99.90;;;;;;4823606;29;20054;-80
2022/03/21 10:24:51;;;;;;;20.47;12.90;;;13.50;99.90;;;;;;4830418;29;20066;-80
2022/03/21 10:27:42;;;;;;;24.25;14.20;;;13.70;99.90;;;;;;4836068;29;20094;-80
2022/03/21 10:30:15;;;;;;;21.13;12.98;;;13.90;99.90;;;;;;4822006;29;20080;-81
2022/03/21 10:32:59;;;;;;;19.98;14.00;;;14.10;99.90;;;;;;4820306;29;20062;-81
2022/03/21 10:35:29;;;;;;;21.70;14.07;;;14.30;99.90;;;;;;4821194;29;20510;-81
2022/03/21 10:37:58;;;;;;;20.88;13.40;;;14.40;99.90;;;;;;4821946;29;20065;-81
2022/03/21 10:40:33;;;;;;;22.23;13.63;;;14.40;99.90;;;;;;4805243;29;20058;-81
2022/03/21 10:43:05;;;;;;;22.15;13.57;;;14.50;99.90;;;;;;4820403;29;20092;-81
2022/03/21 10:45:45;;;;;;;21.63;13.45;;;14.70;99.90;;;;;;4821253;29;20103;-82
2022/03/21 10:48:35;;;;;;;20.15;13.25;;;14.90;99.90;;;;;;4790518;29;20089;-83
2022/03/21 10:51:04;;;;;;;21.08;14.18;;;15.00;99.90;;;;;;4805847;29;20069;-82
2022/03/21 10:53:40;;;;;;;20.67;13.45;;;15.10;99.90;;;;;;4821729;29;20061;-80
2022/03/21 10:56:09;;;;;;;21.98;15.13;;;15.00;99.90;;;;;;4820562;29;20468;-81
2022/03/21 10:58:43;;;;;;;18.77;13.23;;;15.10;99.90;;;;;;4805719;29;20093;-82
2022/03/21 11:01:10;;;;;;;20.55;13.48;;;15.20;99.90;;;;;;4820680;29;20069;-82
2022/03/21 11:03:41;;;;;;;19.27;13.38;;;15.30;99.90;;;;;;4823228;29;20137;-81
2022/03/21 11:06:08;;;;;;;22.38;13.27;;;15.40;99.90;;;;;;4808631;29;20088;-82
2022/03/21 11:08:35;;;;;;;23.60;13.98;;;15.40;99.90;;;;;;4808474;29;20097;-83
2022/03/21 11:11:03;;;;;;;22.40;14.20;;;15.60;99.90;;;;;;4824374;29;20047;-83
2022/03/21 11:13:30;;;;;;;21.95;13.52;;;15.60;99.90;;;;;;4808512;29;20058;-83
2022/03/21 11:15:57;;;;;;;22.77;14.63;;;15.60;99.90;;;;;;4793545;29;20111;-82
2022/03/21 11:18:24;;;;;;;21.40;13.55;;;15.60;99.90;;;;;;4822720;29;20058;-82
2022/03/21 11:20:50;;;;;;;21.58;13.63;;;15.70;99.90;;;;;;4808212;29;20417;-81
2022/03/21 11:23:17;;;;;;;20.98;14.00;;;15.70;99.90;;;;;;4823127;29;20065;-82
2022/03/21 11:25:50;;;;;;;20.60;14.25;;;15.70;99.90;;;;;;4823026;29;20065;-82
2022/03/21 11:28:24;;;;;;;24.20;13.80;;;15.50;99.90;;;;;;4835203;29;20066;-82
2022/03/21 11:31:09;;;;;;;22.00;13.98;;;15.50;99.90;;;;;;4835307;29;20061;-81
2022/03/21 11:33:45;;;;;;;20.77;13.38;;;15.60;99.90;;;;;;4838231;29;20097;-81
2022/03/21 11:36:11;;;;;;;;;;;15.70;99.90;;;;;;4823796;29;20050;-82
2022/03/21 11:38:45;;;;;;;23.88;14.05;;;15.80;99.90;;;;;;4823320;29;19954;-84
2022/03/21 11:41:15;;;;;;;21.75;13.90;;;15.80;99.90;;;;;;4824053;29;20054;-82
2022/03/21 11:43:43;;;;;;;22.77;13.40;;;15.80;99.90;;;;;;4823150;29;20050;-82
2022/03/21 11:46:25;;;;;;;24.08;13.40;;;15.60;99.90;;;;;;4823262;29;20141;-85
2022/03/21 11:48:53;;;;;;;20.35;12.95;;;15.60;99.90;;;;;;4822957;29;20058;-82
2022/03/21 11:51:18;;;;;;;20.70;13.23;;;15.40;99.90;;;;;;4823095;29;20065;-82
2022/03/21 11:53:46;;;;;;;20.77;13.55;;;15.20;99.90;;;;;;4807585;29;20046;-82
2022/03/21 11:56:44;;;;;;;21.42;13.55;;;15.00;99.90;;;;;;4807838;29;20058;-82
2022/03/21 11:59:50;;;;;;;23.15;13.90;;;14.90;99.90;;;;;;4822619;29;20057;-81
2022/03/21 12:02:17;;;;;;;28.63;14.93;;;15.10;99.90;;;;;;4821676;29;20428;-81
2022/03/21 12:04:56;;;;;;;25.33;15.73;;;15.30;99.90;;;;;;4807518;29;20120;-81
2022/03/21 12:07:21;;;;;;;26.40;15.55;;;15.50;99.90;;;;;;4823605;29;20054;-80
2022/03/21 12:09:52;;;;;;;24.00;14.75;;;15.80;99.90;;;;;;4822010;29;20449;-80
2022/03/21 12:12:19;;;;;;;22.95;14.05;;;16.10;99.90;;;;;;4814635;29;20446;-80
2022/03/21 12:14:46;;;;;;;23.13;14.80;;;16.30;99.90;;;;;;4822331;29;20046;-82
2022/03/21 12:17:12;;;;;;;22.85;13.95;;;16.30;99.90;;;;;;4831461;29;20566;-79
2022/03/21 12:22:30;;;;;;;22.48;14.77;;;16.20;99.90;;;;;;4822853;29;20055;-80
2022/03/21 12:24:59;;;;;;;25.00;14.02;;;16.20;99.90;;;;;;4821882;29;20061;-80
2022/03/21 12:27:41;;;;;;;22.52;14.05;;;16.20;99.90;;;;;;4822449;29;20576;-81
2022/03/21 12:30:30;;;;;;;25.05;14.48;;;16.20;99.90;;;;;;4823532;29;20057;-81
2022/03/21 12:33:14;;;;;;;21.45;14.38;;;16.20;99.90;;;;;;4822186;29;20084;-80
2022/03/21 12:35:41;;;;;;;23.88;13.23;;;16.20;99.90;;;;;;4822206;29;20091;-80
2022/03/21 12:38:21;;;;;;;22.35;13.93;;;16.20;99.90;;;;;;4823056;29;20106;-80
2022/03/21 12:40:47;;;;;;;21.77;13.07;;;16.00;99.90;;;;;;4822187;29;20371;-81
2022/03/21 12:43:16;;;;;;;23.63;14.07;;;15.90;99.90;;;;;;4823507;29;20058;-81
2022/03/21 12:45:44;;;;;;;23.52;14.65;;;15.80;99.90;;;;;;4822692;29;20050;-81
2022/03/21 12:48:11;;;;;;;24.83;14.60;;;16.10;99.90;;;;;;4822176;29;20062;-81
2022/03/21 12:50:38;;;;;;;28.10;14.55;;;16.50;99.90;;;;;;4821921;29;20038;-82
2022/03/21 12:53:10;;;;;;;22.85;14.65;;;16.90;99.90;;;;;;4822662;29;20575;-81
2022/03/21 12:55:36;;;;;;;23.73;15.32;;;17.30;99.90;;;;;;4822722;29;20118;-83
2022/03/21 12:58:06;;;;;;;26.45;14.82;;;17.90;99.90;;;;;;4806895;29;20066;-83
2022/03/21 13:00:34;;;;;;;21.92;14.82;;;18.70;99.90;;;;;;4821599;29;20055;-84